Portada
METAR-TAF:

METAR-TAF

Aeropuertos :

Londres-Heathrow, Inglaterra

Aeropuerto de Londres-Heathrow

latitud: 51-29N, longitud: 000-27W, altitud: 24 m

Observación

El informe se hizo hace 30 minutos, a las 03:50 UTC
Viento 4 kt del oeste-noroeste
Temperatura 8°C
Humedad 87%
Presión 1016 hPa
Visibilidad 10 km o más
Cielo nuboso a una altura de 1200 ft
Cielo nuboso a una altura de 2600 ft
lluvia ligera

METAR: EGLL 280350Z AUTO 29004KT 9999 -RA BKN012 BKN026 08/06 Q1016 TEMPO SCT012 BKN026

Hora: 05:20 (04:20 UTC)

Pronóstico

El informe se hizo hace 5 horas y 29 minutos, a las 22:51 UTC
Pronóstico válido del 28 a las 00 UTC al 29 a las 06 UTC
Viento 6 kt del oeste-noroeste
Visibilidad 10 km o más
Nubes dispersas a una altura de 3000 ft
Probabilidad 40% :
Temporalmente
del 28 a las 00 UTC al 28 a las 05 UTC
Visibilidad: 8000 m
Cielo nuboso a una altura de 1400 ft
lluvia ligera

TAF: EGLL 272251Z 2800/2906 30006KT 9999 SCT030 PROB40 TEMPO 2800/2805 8000 -RA BKN014

Observaciones y pronósticos meteorológicos de más de 4000 aeropuertos (mensajes METAR y TAF).

Los puntos amarillos y rojos representan las estaciones disponibles.

Ponga el ratón en el punto deseado para ver el nombre de la estación.

Haga clic para ver las observaciones y los pronósticos meteorológicos.

Para cambiar el mapa : haga clic en los botones verdes con una cruz de color negro para hacer un zoom, en el botón verde con un guión para alejar o en las flechas verdes para mapas adyacentes.


METAR-TAF: